Time;durP1;ratioP1;P1;durP2;ratioP2;P2;SDS_P1;SDS_P2;PMS_P1;PMS_P2;Temp;Humidity;BMP_temperature;BMP_pressure;BME280_temperature;BME280_humidity;BME280_pressure;Samples;Min_cycle;Max_cycle;Signal;HPM_P1;HPM_P2
2022/06/13 00:02:08;;;;;;;;;;;23.80;93.30;;;;;;5013225;28;19932;-80
2022/06/13 00:04:37;;;;;;;;;;;23.70;93.40;;;;;;5010282;28;20032;-80
2022/06/13 00:07:02;;;;;;;;;;;23.80;93.60;;;;;;5009524;28;19913;-80
2022/06/13 00:09:28;;;;;;;;;;;23.80;93.70;;;;;;5009635;28;19954;-80
2022/06/13 00:11:54;;;;;;;;;;;23.80;93.90;;;;;;5010282;28;19909;-80
2022/06/13 00:14:19;;;;;;;;;;;23.80;94.00;;;;;;5011096;28;19918;-80
2022/06/13 00:16:45;;;;;;;;;;;23.80;93.90;;;;;;5011158;28;20051;-80
2022/06/13 00:19:10;;;;;;;;;;;23.70;94.00;;;;;;5011554;28;19916;-80
2022/06/13 00:21:36;;;;;;;;;;;23.60;94.10;;;;;;5008964;28;19959;-80
2022/06/13 00:24:03;;;;;;;;;;;23.60;94.40;;;;;;5009485;28;19918;-80
2022/06/13 00:26:31;;;;;;;;;;;23.60;94.50;;;;;;5009953;28;20012;-81
2022/06/13 00:28:57;;;;;;;;;;;23.60;94.70;;;;;;5009295;28;19909;-80
2022/06/13 00:31:23;;;;;;;;;;;23.60;94.70;;;;;;5009468;28;19916;-80
2022/06/13 00:33:49;;;;;;;;;;;23.60;94.70;;;;;;5009590;28;19910;-80
2022/06/13 00:36:15;;;;;;;;;;;23.40;95.10;;;;;;5012379;28;19984;-80
2022/06/13 00:38:41;;;;;;;;;;;23.20;95.40;;;;;;5013981;28;20012;-80
2022/06/13 00:41:10;;;;;;;;;;;23.00;95.60;;;;;;5012848;28;20471;-80
2022/06/13 00:43:37;;;;;;;;;;;22.90;95.80;;;;;;5012442;28;19917;-80
2022/06/13 00:46:14;;;;;;;;;;;23.00;95.50;;;;;;5013732;28;19905;-80
2022/06/13 00:48:39;;;;;;;;;;;23.00;95.30;;;;;;5013266;28;20366;-80
2022/06/13 00:51:05;;;;;;;;;;;23.00;95.40;;;;;;5012528;28;19905;-80
2022/06/13 00:53:32;;;;;;;;;;;23.00;95.20;;;;;;5013345;28;19916;-80
2022/06/13 00:56:01;;;;;;;;;;;23.00;95.30;;;;;;5012483;28;20362;-80
2022/06/13 00:58:29;;;;;;;;;;;23.00;95.30;;;;;;5012732;28;19913;-80
2022/06/13 01:00:56;;;;;;;;;;;23.00;95.40;;;;;;5013057;28;19913;-80
2022/06/13 01:03:23;;;;;;;;;;;23.00;95.40;;;;;;5012794;28;19914;-80
2022/06/13 01:05:49;;;;;;;;;;;23.00;95.70;;;;;;5012960;28;19924;-81
2022/06/13 01:08:16;;;;;;;;;;;23.00;95.70;;;;;;5012882;28;19992;-81
2022/06/13 01:13:39;;;;;;;;;;;22.90;95.90;;;;;;5013364;28;19916;-79
2022/06/13 01:16:08;;;;;;;;;;;22.90;95.60;;;;;;5012901;28;19992;-79
2022/06/13 01:18:40;;;;;;;;;;;22.80;95.90;;;;;;5012768;28;19933;-80
2022/06/13 01:21:14;;;;;;;;;;;22.90;96.00;;;;;;5013414;28;19917;-80
2022/06/13 01:23:58;;;;;;;;;;;23.00;95.80;;;;;;5013428;28;19913;-80
2022/06/13 01:26:42;;;;;;;;;;;23.10;95.70;;;;;;5012380;28;20037;-80
2022/06/13 01:29:08;;;;;;;;;;;23.10;95.80;;;;;;5010019;28;20301;-80
2022/06/13 01:31:36;;;;;;;;;;;23.10;95.80;;;;;;5011531;28;19960;-80
2022/06/13 01:34:07;;;;;;;;;;;23.20;95.80;;;;;;5012779;28;19988;-80
2022/06/13 01:36:43;;;;;;;;;;;23.30;95.60;;;;;;5012823;28;19909;-80
2022/06/13 01:39:08;;;;;;;;;;;23.20;95.70;;;;;;5012917;28;19915;-80
2022/06/13 01:41:41;;;;;;;;;;;23.20;95.90;;;;;;5013152;28;19987;-80
2022/06/13 01:44:11;;;;;;;;;;;23.20;96.00;;;;;;5012036;28;19921;-80
2022/06/13 01:46:42;;;;;;;;;;;23.20;95.90;;;;;;5011955;28;19960;-80
2022/06/13 01:49:16;;;;;;;;;;;23.20;96.10;;;;;;5015502;28;19912;-80
2022/06/13 01:51:44;;;;;;;;;;;23.10;96.30;;;;;;5016430;28;19910;-80
2022/06/13 01:54:25;;;;;;;;;;;22.90;96.90;;;;;;5016752;28;19906;-80
2022/06/13 01:56:54;;;;;;;;;;;22.80;97.10;;;;;;5014764;28;19909;-80
2022/06/13 01:59:25;;;;;;;;;;;22.80;97.50;;;;;;5016688;28;19909;-80
2022/06/13 02:01:56;;;;;;;;;;;22.80;97.40;;;;;;5015706;28;19955;-80
2022/06/13 02:04:31;;;;;;;;;;;22.80;97.50;;;;;;5015841;28;19940;-79
2022/06/13 02:07:08;;;;;;;;;;;22.80;97.80;;;;;;5016062;28;19909;-80
2022/06/13 02:09:38;;;;;;;;;;;22.80;98.00;;;;;;5016281;28;19909;-80
2022/06/13 02:12:04;;;;;;;;;;;22.80;98.20;;;;;;5016320;28;19944;-80
2022/06/13 02:14:29;;;;;;;;;;;22.80;98.20;;;;;;5017921;28;19916;-80
2022/06/13 02:17:01;;;;;;;;;;;22.80;98.00;;;;;;5015451;28;19931;-80
2022/06/13 02:19:31;;;;;;;;;;;22.80;98.00;;;;;;5015744;28;19913;-80
2022/06/13 02:22:05;;;;;;;;;;;22.90;98.10;;;;;;5015485;28;19956;-80
2022/06/13 02:24:33;;;;;;;;;;;22.90;98.10;;;;;;5015745;28;19965;-80
2022/06/13 02:26:59;;;;;;;;;;;22.90;98.00;;;;;;5015969;28;20349;-80
2022/06/13 02:29:46;;;;;;;;;;;22.90;97.80;;;;;;5016348;28;20092;-80
2022/06/13 02:32:14;;;;;;;;;;;22.90;97.60;;;;;;5013655;28;20330;-80
2022/06/13 02:34:41;;;;;;;;;;;22.70;97.70;;;;;;5012905;28;20278;-80
2022/06/13 02:37:17;;;;;;;;;;;22.50;97.90;;;;;;5015651;28;20445;-80
2022/06/13 02:40:06;;;;;;;;;;;22.40;97.70;;;;;;5016355;28;19944;-80
2022/06/13 02:42:36;;;;;;;;;;;22.40;97.70;;;;;;5010163;28;19909;-80
2022/06/13 02:45:07;;;;;;;;;;;22.40;97.70;;;;;;5015399;28;19960;-80
2022/06/13 02:47:51;;;;;;;;;;;22.40;97.40;;;;;;5015005;28;19917;-80
2022/06/13 02:50:19;;;;;;;;;;;22.50;97.30;;;;;;5013939;28;19910;-80
2022/06/13 02:52:51;;;;;;;;;;;22.50;97.20;;;;;;5014503;28;20359;-80
2022/06/13 02:55:17;;;;;;;;;;;22.50;97.10;;;;;;5015384;28;20004;-80
2022/06/13 02:58:10;;;;;;;;;;;22.50;97.00;;;;;;5014617;28;19917;-80
2022/06/13 03:00:41;;;;;;;;;;;22.50;96.80;;;;;;5014558;28;19937;-80
2022/06/13 03:03:10;;;;;;;;;;;22.50;96.60;;;;;;5015679;28;19909;-80
2022/06/13 03:05:35;;;;;;;;;;;22.50;96.30;;;;;;5015087;28;20004;-80
2022/06/13 03:08:08;;;;;;;;;;;22.50;96.30;;;;;;5014099;28;19996;-80
2022/06/13 03:10:40;;;;;;;;;;;22.60;96.30;;;;;;5015713;28;19906;-80
2022/06/13 03:13:09;;;;;;;;;;;22.60;96.00;;;;;;5015207;28;19914;-80
2022/06/13 03:15:47;;;;;;;;;;;22.60;95.90;;;;;;5014249;28;19909;-80
2022/06/13 03:18:20;;;;;;;;;;;22.60;95.80;;;;;;5014775;28;20285;-80
2022/06/13 03:20:59;;;;;;;;;;;22.60;95.60;;;;;;5015038;28;20305;-80
2022/06/13 03:23:43;;;;;;;;;;;22.70;95.40;;;;;;5015071;28;19929;-80
2022/06/13 03:26:13;;;;;;;;;;;22.60;95.70;;;;;;5012242;28;19905;-80
2022/06/13 03:28:38;;;;;;;;;;;22.60;95.70;;;;;;5011989;28;19911;-80
2022/06/13 03:31:08;;;;;;;;;;;22.50;95.30;;;;;;5014288;28;19909;-79
2022/06/13 03:33:41;;;;;;;;;;;22.60;95.20;;;;;;5013890;28;20279;-80
2022/06/13 03:36:19;;;;;;;;;;;22.60;94.70;;;;;;5013558;28;20005;-81
2022/06/13 03:38:47;;;;;;;;;;;22.60;94.60;;;;;;5014530;28;19955;-80
2022/06/13 03:41:15;;;;;;;;;;;22.60;94.50;;;;;;5015382;28;19909;-81
2022/06/13 03:43:44;;;;;;;;;;;22.50;94.50;;;;;;5011222;28;20354;-80
2022/06/13 03:46:26;;;;;;;;;;;22.60;94.50;;;;;;5014032;28;19909;-80
2022/06/13 03:48:55;;;;;;;;;;;22.60;94.30;;;;;;5014324;28;19957;-80
2022/06/13 03:51:23;;;;;;;;;;;22.60;94.50;;;;;;5013974;28;19917;-80
2022/06/13 03:53:51;;;;;;;;;;;22.60;94.40;;;;;;5014518;28;20000;-80
2022/06/13 03:56:23;;;;;;;;;;;22.60;94.40;;;;;;5014286;28;19909;-80
2022/06/13 03:58:48;;;;;;;;;;;22.60;94.60;;;;;;5013267;28;20281;-80
2022/06/13 04:01:14;;;;;;;;;;;22.60;94.60;;;;;;5014207;28;20003;-80
2022/06/13 04:03:41;;;;;;;;;;;22.70;94.60;;;;;;5014093;28;20378;-80
2022/06/13 04:06:26;;;;;;;;;;;22.80;93.70;;;;;;5013882;28;19921;-80
2022/06/13 04:08:52;;;;;;;;;;;22.80;93.80;;;;;;5013983;28;19910;-80
2022/06/13 04:11:20;;;;;;;;;;;22.80;93.90;;;;;;5013081;28;19917;-80
2022/06/13 04:14:01;;;;;;;;;;;22.80;93.70;;;;;;5012747;28;19909;-80
2022/06/13 04:16:27;;;;;;;;;;;22.90;93.10;;;;;;5013716;28;19917;-80
2022/06/13 04:18:58;;;;;;;;;;;22.90;93.00;;;;;;5013766;28;20283;-80
2022/06/13 04:21:36;;;;;;;;;;;23.00;93.10;;;;;;5013744;28;19917;-80
2022/06/13 04:24:17;;;;;;;;;;;23.00;92.40;;;;;;5014132;28;19922;-80
2022/06/13 04:26:51;;;;;;;;;;;23.10;92.70;;;;;;5006813;28;19909;-81
2022/06/13 04:29:16;;;;;;;;;;;23.10;92.40;;;;;;5014251;28;19953;-80
2022/06/13 04:31:45;;;;;;;;;;;23.10;92.30;;;;;;5012913;28;19936;-80
2022/06/13 04:34:19;;;;;;;;;;;23.10;93.30;;;;;;5013551;28;19913;-81
2022/06/13 04:36:46;;;;;;;;;;;22.80;94.20;;;;;;5013524;28;19909;-80
2022/06/13 04:39:14;;;;;;;;;;;22.60;94.90;;;;;;5014109;28;19909;-80
2022/06/13 04:41:41;;;;;;;;;;;22.60;95.00;;;;;;5013447;28;20416;-80
2022/06/13 04:44:07;;;;;;;;;;;22.70;95.10;;;;;;5012302;28;20294;-81
2022/06/13 04:46:34;;;;;;;;;;;22.70;94.90;;;;;;5013858;28;19916;-80
2022/06/13 04:49:05;;;;;;;;;;;22.70;94.60;;;;;;5013271;28;19905;-80
2022/06/13 04:51:38;;;;;;;;;;;22.70;94.60;;;;;;5013511;28;20286;-80
2022/06/13 04:54:05;;;;;;;;;;;22.80;94.40;;;;;;5013537;28;19909;-80
2022/06/13 04:56:31;;;;;;;;;;;22.80;93.60;;;;;;5013224;28;19983;-80
2022/06/13 04:58:57;;;;;;;;;;;22.80;93.20;;;;;;5012542;28;19905;-80
2022/06/13 05:01:28;;;;;;;;;;;22.80;92.80;;;;;;5012055;28;19943;-80
2022/06/13 05:03:55;;;;;;;;;;;22.80;92.50;;;;;;5013126;28;20400;-80
2022/06/13 05:06:31;;;;;;;;;;;22.80;92.60;;;;;;5007495;28;19910;-80
2022/06/13 05:09:00;;;;;;;;;;;22.80;92.70;;;;;;5013290;28;19956;-80
2022/06/13 05:11:27;;;;;;;;;;;22.70;92.80;;;;;;5012663;28;19963;-80
2022/06/13 05:13:57;;;;;;;;;;;22.80;92.90;;;;;;5012298;28;19909;-80
2022/06/13 05:16:32;;;;;;;;;;;22.80;92.70;;;;;;5012966;28;19915;-76
2022/06/13 05:19:07;;;;;;;;;;;22.80;92.60;;;;;;5013740;28;19949;-75
2022/06/13 05:21:39;;;;;;;;;;;23.00;92.60;;;;;;5013687;28;20130;-78
2022/06/13 05:24:10;;;;;;;;;;;23.10;92.00;;;;;;5016796;28;19917;-81
2022/06/13 05:26:36;;;;;;;;;;;23.10;92.30;;;;;;5016736;28;19909;-82
2022/06/13 05:29:01;;;;;;;;;;;23.20;92.50;;;;;;5016072;28;20006;-81
2022/06/13 05:31:28;;;;;;;;;;;23.20;92.40;;;;;;5004520;28;20315;-81
2022/06/13 05:33:53;;;;;;;;;;;23.10;92.70;;;;;;5012705;28;19909;-81
2022/06/13 05:36:20;;;;;;;;;;;23.10;92.50;;;;;;5015165;28;19940;-82
2022/06/13 05:38:51;;;;;;;;;;;23.10;92.70;;;;;;5016965;28;19909;-80
2022/06/13 05:41:17;;;;;;;;;;;23.20;92.80;;;;;;5016348;28;19959;-81
2022/06/13 05:43:42;;;;;;;;;;;23.20;92.50;;;;;;5015914;28;19909;-81
2022/06/13 05:46:08;;;;;;;;;;;23.20;92.30;;;;;;5016632;28;19913;-80
2022/06/13 05:48:34;;;;;;;;;;;23.20;92.40;;;;;;5016519;28;19949;-82
2022/06/13 05:51:00;;;;;;;;;;;23.30;92.50;;;;;;5016959;28;20369;-81
2022/06/13 05:53:26;;;;;;;;;;;23.40;92.30;;;;;;5016159;28;19910;-81
2022/06/13 05:55:55;;;;;;;;;;;23.40;92.20;;;;;;5015232;28;19911;-81
2022/06/13 05:58:21;;;;;;;;;;;23.40;91.80;;;;;;5016115;28;19917;-81
2022/06/13 06:00:48;;;;;;;;;;;23.50;91.60;;;;;;5016081;28;19910;-82
2022/06/13 06:03:13;;;;;;;;;;;23.50;91.70;;;;;;5017002;28;20292;-85
2022/06/13 06:05:39;;;;;;;;;;;23.60;91.60;;;;;;5014988;28;19928;-81
2022/06/13 06:08:06;;;;;;;;;;;23.60;91.60;;;;;;5015223;28;19905;-83
2022/06/13 06:10:34;;;;;;;;;;;23.60;91.30;;;;;;5015500;28;19917;-82
2022/06/13 06:12:59;;;;;;;;;;;23.70;91.70;;;;;;5015632;28;19988;-83
2022/06/13 06:15:25;;;;;;;;;;;23.80;92.00;;;;;;5016254;28;20345;-84
2022/06/13 06:17:51;;;;;;;;;;;23.80;92.40;;;;;;5015991;28;19917;-81
2022/06/13 06:20:17;;;;;;;;;;;23.80;92.30;;;;;;5015770;28;19917;-81
2022/06/13 06:22:43;;;;;;;;;;;23.80;91.70;;;;;;5015547;28;19909;-80
2022/06/13 06:25:09;;;;;;;;;;;23.80;91.70;;;;;;5015278;28;19913;-82
2022/06/13 06:27:35;;;;;;;;;;;23.80;91.50;;;;;;5015735;28;19944;-80
2022/06/13 06:30:00;;;;;;;;;;;23.80;91.70;;;;;;5015771;28;20424;-80
2022/06/13 06:32:26;;;;;;;;;;;23.90;91.40;;;;;;5015805;28;22691;-80
2022/06/13 06:34:51;;;;;;;;;;;23.90;91.20;;;;;;5013501;28;19921;-80
2022/06/13 06:37:17;;;;;;;;;;;23.90;91.50;;;;;;5015681;28;20369;-80
2022/06/13 06:39:43;;;;;;;;;;;24.00;90.90;;;;;;5015237;28;19910;-80
2022/06/13 06:42:09;;;;;;;;;;;24.00;90.90;;;;;;5015548;28;19943;-80
2022/06/13 06:44:35;;;;;;;;;;;24.00;91.00;;;;;;5015276;28;20297;-80
2022/06/13 06:47:00;;;;;;;;;;;24.10;91.10;;;;;;5014411;28;20320;-80
2022/06/13 06:49:26;;;;;;;;;;;24.10;91.40;;;;;;5016747;28;19905;-79
2022/06/13 06:51:51;;;;;;;;;;;24.10;91.20;;;;;;5009325;28;20055;-80
2022/06/13 06:59:55;;;;;;;;;;;24.20;90.80;;;;;;5011934;28;20190;-86
2022/06/13 07:02:24;;;;;;;;;;;24.30;90.70;;;;;;5010461;28;19925;-86
2022/06/13 07:04:53;;;;;;;;;;;24.30;90.20;;;;;;5010145;28;20349;-86
2022/06/13 07:07:19;;;;;;;;;;;24.30;90.60;;;;;;5011036;28;19909;-87
2022/06/13 07:09:45;;;;;;;;;;;24.40;90.50;;;;;;5011781;28;20373;-89
2022/06/13 07:12:10;;;;;;;;;;;24.40;90.70;;;;;;5009743;28;19920;-86
2022/06/13 07:14:36;;;;;;;;;;;24.40;90.70;;;;;;5008445;28;20286;-86
2022/06/13 07:17:03;;;;;;;;;;;24.50;91.00;;;;;;5010135;28;19909;-87
2022/06/13 07:19:28;;;;;;;;;;;24.50;91.30;;;;;;5010682;28;19952;-86
2022/06/13 07:21:54;;;;;;;;;;;24.60;91.10;;;;;;5010342;28;20337;-86
2022/06/13 07:24:20;;;;;;;;;;;24.70;91.00;;;;;;5010840;28;19913;-91
2022/06/13 07:26:46;;;;;;;;;;;24.80;90.80;;;;;;5011008;28;19909;-89
2022/06/13 07:29:12;;;;;;;;;;;24.80;90.60;;;;;;5010919;28;19906;-88
2022/06/13 07:31:41;;;;;;;;;;;24.80;90.30;;;;;;5008268;28;20386;-87
2022/06/13 07:34:11;;;;;;;;;;;24.90;90.30;;;;;;5010584;28;20136;-88
2022/06/13 07:36:36;;;;;;;;;;;25.00;90.20;;;;;;5006089;28;19917;-87
2022/06/13 07:39:02;;;;;;;;;;;25.00;90.50;;;;;;5011280;28;19913;-90
2022/06/13 07:41:27;;;;;;;;;;;25.00;90.20;;;;;;5010947;28;19913;-90
2022/06/13 07:43:54;;;;;;;;;;;25.10;90.30;;;;;;5009752;28;19996;-88
2022/06/13 07:46:23;;;;;;;;;;;25.20;90.70;;;;;;5009824;28;19913;-88
2022/06/13 07:48:49;;;;;;;;;;;25.30;90.40;;;;;;5011414;28;19932;-89
2022/06/13 07:51:15;;;;;;;;;;;25.40;90.40;;;;;;5010401;28;20345;-89
2022/06/13 07:53:41;;;;;;;;;;;25.50;90.90;;;;;;5010372;28;19910;-87
2022/06/13 07:56:06;;;;;;;;;;;25.60;91.00;;;;;;5009813;28;19905;-85
2022/06/13 07:58:34;;;;;;;;;;;25.70;90.70;;;;;;5010469;28;19913;-84
2022/06/13 08:01:00;;;;;;;;;;;25.80;90.60;;;;;;5009984;28;20172;-85
2022/06/13 08:03:28;;;;;;;;;;;25.80;90.40;;;;;;5009662;28;20364;-84
2022/06/13 08:05:54;;;;;;;;;;;25.80;90.30;;;;;;5008696;28;19913;-86
2022/06/13 08:08:20;;;;;;;;;;;25.80;90.30;;;;;;5010353;28;19924;-89
2022/06/13 08:10:46;;;;;;;;;;;25.80;90.30;;;;;;5009736;28;19987;-89
2022/06/13 08:13:12;;;;;;;;;;;25.80;90.30;;;;;;5009832;28;19913;-87
2022/06/13 08:15:38;;;;;;;;;;;25.80;90.30;;;;;;5010532;28;19909;-88
2022/06/13 08:18:04;;;;;;;;;;;25.80;90.10;;;;;;5011682;28;19959;-88
2022/06/13 08:20:30;;;;;;;;;;;25.70;90.20;;;;;;5009787;28;19913;-89
2022/06/13 08:22:58;;;;;;;;;;;25.70;90.30;;;;;;5024807;28;19924;-89
2022/06/13 08:25:26;;;;;;;;;;;25.70;90.40;;;;;;5009961;28;20297;-89
2022/06/13 08:27:52;;;;;;;;;;;25.70;90.30;;;;;;5009096;28;19909;-80
2022/06/13 08:30:18;;;;;;;;;;;25.60;90.20;;;;;;5007923;28;20274;-81
2022/06/13 08:32:44;;;;;;;;;;;25.60;90.30;;;;;;5006593;28;20285;-81
2022/06/13 08:35:10;;;;;;;;;;;25.70;90.40;;;;;;5008738;28;19909;-80
2022/06/13 08:37:36;;;;;;;;;;;25.70;90.70;;;;;;5009419;28;19916;-80
2022/06/13 08:40:03;;;;;;;;;;;25.80;90.90;;;;;;5009125;28;20004;-80
2022/06/13 08:42:51;;;;;;;;;;;25.80;91.00;;;;;;5009169;28;19910;-80
2022/06/13 08:45:47;;;;;;;;;;;25.90;91.10;;;;;;5008916;28;19914;-80
2022/06/13 08:48:32;;;;;;;;;;;25.90;90.90;;;;;;4999790;28;19909;-76
2022/06/13 08:51:09;;;;;;;;;;;26.10;90.30;;;;;;5009237;28;20348;-76
2022/06/13 08:53:55;;;;;;;;;;;26.10;90.10;;;;;;4994691;28;19913;-76
2022/06/13 08:56:22;;;;;;;;;;;26.30;89.40;;;;;;5008339;28;19963;-76
2022/06/13 08:58:53;;;;;;;;;;;26.30;88.30;;;;;;5008198;28;19913;-77
2022/06/13 09:01:27;;;;;;;;;;;26.30;89.20;;;;;;5009334;28;19905;-76
2022/06/13 09:03:56;;;;;;;;;;;26.50;87.80;;;;;;5008587;28;20004;-77
2022/06/13 09:06:27;;;;;;;;;;;26.50;87.50;;;;;;5009721;28;19920;-76
2022/06/13 09:09:19;;;;;;;;;;;26.60;86.50;;;;;;5008455;28;19909;-77
2022/06/13 09:11:51;;;;;;;;;;;26.60;85.50;;;;;;4993800;28;19912;-75
2022/06/13 09:14:34;;;;;;;;;;;26.60;85.20;;;;;;5008348;28;19913;-78
2022/06/13 09:16:59;;;;;;;;;;;26.60;84.90;;;;;;5003828;28;19956;-81
2022/06/13 09:19:25;;;;;;;;;;;26.90;85.10;;;;;;5008717;28;19933;-80
2022/06/13 09:22:09;;;;;;;;;;;27.00;84.30;;;;;;5007029;28;19921;-84
2022/06/13 09:24:52;;;;;;;;;;;27.00;84.70;;;;;;5002148;28;20107;-83
2022/06/13 09:27:18;;;;;;;;;;;27.20;84.00;;;;;;5006846;28;19910;-83
2022/06/13 09:30:00;;;;;;;;;;;27.20;84.40;;;;;;5008293;28;19920;-83
2022/06/13 09:32:39;;;;;;;;;;;27.40;84.00;;;;;;5008330;28;19914;-82
2022/06/13 09:35:12;;;;;;;;;;;27.30;82.60;;;;;;5004826;28;20420;-83
2022/06/13 09:37:56;;;;;;;;;;;27.30;82.40;;;;;;5009735;28;20004;-81
2022/06/13 09:40:47;;;;;;;;;;;27.60;81.20;;;;;;5003077;28;19913;-86
2022/06/13 09:43:42;;;;;;;;;;;27.70;81.20;;;;;;4947781;28;20092;-80
2022/06/13 09:46:28;;;;;;;;;;;27.90;80.50;;;;;;4914227;29;20407;-81
2022/06/13 09:48:56;;;;;;;;;;;27.80;79.80;;;;;;4901607;29;20450;-81
2022/06/13 09:51:40;;;;;;;;;;;27.90;80.20;;;;;;4920933;29;20379;-79
2022/06/13 09:54:17;;;;;;;;;;;27.90;79.90;;;;;;4912714;29;19961;-82
2022/06/13 09:56:48;;;;;;;;;;;28.00;79.90;;;;;;4909985;29;19911;-79
2022/06/13 09:59:13;;;;;;;;;;;28.00;79.70;;;;;;4911484;29;19966;-79
2022/06/13 10:01:45;;;;;;;;;;;28.20;78.50;;;;;;4911993;29;20004;-81
2022/06/13 10:04:16;;;;;;;;;;;28.20;77.90;;;;;;4895940;29;19927;-84
2022/06/13 10:06:52;;;;;;;;;;;28.40;77.30;;;;;;4912227;29;19911;-84
2022/06/13 10:09:36;;;;;;;;;;;28.40;77.10;;;;;;4914862;29;20151;-83
2022/06/13 10:12:19;;;;;;;;;;;28.60;76.50;;;;;;4916183;29;19951;-84
2022/06/13 10:14:59;;;;;;;;;;;28.50;76.90;;;;;;4899813;29;20443;-82
2022/06/13 10:17:27;;;;;;;;;;;28.50;76.70;;;;;;4912082;29;19918;-84
2022/06/13 10:19:54;;;;;;;;;;;28.50;76.80;;;;;;4944257;28;19906;-84
2022/06/13 10:22:39;;;;;;;;;;;28.80;75.20;;;;;;4991184;28;20004;-82
2022/06/13 10:25:40;;;;;;;;;;;28.70;75.10;;;;;;5015820;28;19923;-82
2022/06/13 10:28:25;;;;;;;;;;;28.70;75.20;;;;;;4973290;28;20441;-83
2022/06/13 10:30:57;;;;;;;;;;;28.70;75.10;;;;;;4972683;28;19933;-86
2022/06/13 10:33:41;;;;;;;;;;;28.70;74.90;;;;;;4973286;28;20371;-85
2022/06/13 10:36:18;;;;;;;;;;;28.80;74.00;;;;;;4973046;28;19956;-84
2022/06/13 10:39:15;;;;;;;;;;;29.00;73.70;;;;;;4972777;28;19910;-84
2022/06/13 10:41:46;;;;;;;;;;;28.90;73.90;;;;;;4921292;29;19911;-90
2022/06/13 10:44:13;;;;;;;;;;;29.00;73.20;;;;;;4934995;28;20009;-90
2022/06/13 10:46:43;;;;;;;;;;;29.00;73.30;;;;;;4918775;29;19915;-86
2022/06/13 10:49:15;;;;;;;;;;;29.10;73.70;;;;;;4935085;29;19914;-85
2022/06/13 10:51:42;;;;;;;;;;;29.20;72.90;;;;;;4934349;29;19949;-87
2022/06/13 10:54:10;;;;;;;;;;;29.20;72.60;;;;;;4934984;29;19950;-89
2022/06/13 10:56:40;;;;;;;;;;;29.50;72.00;;;;;;4935120;29;19919;-89
2022/06/13 10:59:05;;;;;;;;;;;29.30;72.30;;;;;;4935867;29;19906;-88
2022/06/13 11:01:31;;;;;;;;;;;29.40;71.70;;;;;;4935345;29;20005;-89
2022/06/13 11:04:04;;;;;;;;;;;29.50;71.30;;;;;;4931851;29;20009;-89
2022/06/13 11:06:42;;;;;;;;;;;29.70;71.20;;;;;;4932356;29;20383;-90
2022/06/13 11:09:25;;;;;;;;;;;29.60;70.30;;;;;;4932249;29;20461;-84
2022/06/13 11:11:55;;;;;;;;;;;29.60;70.20;;;;;;4931638;29;19911;-83
2022/06/13 11:22:37;;;;;;;;;;;29.80;70.20;;;;;;4932205;29;19911;-83
2022/06/13 11:23:01;;;;;;;;;;;30.20;68.10;;;;;;5009490;28;20003;-81
2022/06/13 11:25:29;;;;;;;;;;;30.30;69.20;;;;;;5013983;28;19917;-82
2022/06/13 11:28:25;;;;;;;;;;;30.40;69.10;;;;;;5013643;28;19906;-83
2022/06/13 11:31:02;;;;;;;;;;;30.40;68.60;;;;;;5006235;28;19956;-82
2022/06/13 11:33:32;;;;;;;;;;;30.30;68.40;;;;;;5014351;28;19924;-82
2022/06/13 11:36:17;;;;;;;;;;;30.40;66.90;;;;;;5014647;28;19941;-83
2022/06/13 11:38:56;;;;;;;;;;;30.40;66.30;;;;;;5000160;28;19905;-82
2022/06/13 11:41:25;;;;;;;;;;;30.50;66.20;;;;;;5014294;28;20428;-83
2022/06/13 11:43:53;;;;;;;;;;;30.60;66.80;;;;;;5013330;28;20374;-83
2022/06/13 11:46:51;;;;;;;;;;;30.60;66.60;;;;;;5014405;28;19920;-83
2022/06/13 11:49:17;;;;;;;;;;;30.50;67.50;;;;;;4971396;28;19910;-83
2022/06/13 11:51:49;;;;;;;;;;;30.60;67.00;;;;;;4971366;28;19906;-83
2022/06/13 11:54:20;;;;;;;;;;;30.60;67.20;;;;;;4970338;28;19906;-83
2022/06/13 11:56:46;;;;;;;;;;;30.60;68.10;;;;;;4971303;28;19939;-83
2022/06/13 11:59:15;;;;;;;;;;;30.70;68.20;;;;;;4971530;28;19906;-83
2022/06/13 12:01:40;;;;;;;;;;;31.00;67.60;;;;;;4971650;28;20005;-82
2022/06/13 12:04:18;;;;;;;;;;;30.80;69.30;;;;;;4970695;28;19914;-83
2022/06/13 12:06:43;;;;;;;;;;;31.00;68.00;;;;;;4971177;28;20334;-83
2022/06/13 12:09:23;;;;;;;;;;;31.00;68.20;;;;;;4971289;28;19945;-82
2022/06/13 12:12:00;;;;;;;;;;;30.90;68.40;;;;;;4970965;28;19910;-82
2022/06/13 12:14:26;;;;;;;;;;;31.10;68.70;;;;;;4971169;28;19916;-82
2022/06/13 12:16:54;;;;;;;;;;;31.00;69.10;;;;;;4972094;28;19910;-83
2022/06/13 12:19:20;;;;;;;;;;;31.00;69.10;;;;;;4970777;28;19949;-83
2022/06/13 12:21:49;;;;;;;;;;;31.00;69.90;;;;;;4970735;28;19980;-83
2022/06/13 12:24:18;;;;;;;;;;;31.20;69.60;;;;;;4980246;28;19953;-83
2022/06/13 12:26:49;;;;;;;;;;;31.00;70.70;;;;;;5012935;28;20362;-82
2022/06/13 12:29:35;;;;;;;;;;;31.10;69.90;;;;;;5013521;28;19912;-82
2022/06/13 12:32:05;;;;;;;;;;;31.10;71.00;;;;;;5008349;28;19905;-83
2022/06/13 12:34:46;;;;;;;;;;;31.20;70.80;;;;;;5013186;28;20365;-83
2022/06/13 12:37:12;;;;;;;;;;;31.10;71.00;;;;;;5013185;28;19909;-85
2022/06/13 12:39:50;;;;;;;;;;;31.10;70.60;;;;;;5013303;28;19920;-78
2022/06/13 12:42:27;;;;;;;;;;;31.40;70.00;;;;;;5012662;28;19913;-74
2022/06/13 12:45:03;;;;;;;;;;;31.30;70.70;;;;;;5012893;28;20432;-74
2022/06/13 12:47:47;;;;;;;;;;;31.20;70.90;;;;;;5012802;28;20354;-77
2022/06/13 12:50:31;;;;;;;;;;;31.30;70.60;;;;;;5011015;28;19905;-77
2022/06/13 12:53:09;;;;;;;;;;;31.10;71.60;;;;;;5012269;28;19992;-77
2022/06/13 12:55:37;;;;;;;;;;;31.00;72.30;;;;;;5013138;28;19956;-78
2022/06/13 12:58:15;;;;;;;;;;;31.40;71.50;;;;;;5008019;28;20385;-78
2022/06/13 13:00:47;;;;;;;;;;;31.30;71.50;;;;;;5009041;28;19917;-78
2022/06/13 13:03:27;;;;;;;;;;;31.30;71.20;;;;;;5009514;28;19917;-79
2022/06/13 13:06:05;;;;;;;;;;;31.30;71.60;;;;;;5004213;28;19932;-79
2022/06/13 13:08:33;;;;;;;;;;;31.20;70.80;;;;;;4993501;28;19912;-78
2022/06/13 13:11:06;;;;;;;;;;;31.20;71.40;;;;;;5003740;28;19916;-77
2022/06/13 13:14:01;;;;;;;;;;;31.50;71.10;;;;;;5008364;28;19940;-78
2022/06/13 13:16:30;;;;;;;;;;;31.80;69.80;;;;;;4951019;28;19915;-78
2022/06/13 13:19:13;;;;;;;;;;;31.70;69.70;;;;;;4951031;28;19910;-78
2022/06/13 13:21:45;;;;;;;;;;;31.60;70.50;;;;;;4935319;29;20318;-78
2022/06/13 13:24:18;;;;;;;;;;;31.30;70.90;;;;;;4951114;28;20013;-78
2022/06/13 13:27:04;;;;;;;;;;;31.50;70.10;;;;;;4949131;28;19910;-78
2022/06/13 13:29:29;;;;;;;;;;;31.50;69.20;;;;;;4946378;29;19926;-78
2022/06/13 13:32:04;;;;;;;;;;;31.70;69.00;;;;;;4951729;28;19907;-77
2022/06/13 13:34:42;;;;;;;;;;;32.10;68.20;;;;;;4951393;28;19989;-78
2022/06/13 13:37:10;;;;;;;;;;;31.90;68.40;;;;;;4950783;28;20380;-77
2022/06/13 13:39:46;;;;;;;;;;;31.80;68.70;;;;;;4950785;28;20434;-77
2022/06/13 13:42:29;;;;;;;;;;;31.80;68.60;;;;;;4950728;28;20338;-77
2022/06/13 13:45:00;;;;;;;;;;;31.80;68.20;;;;;;4952593;28;19921;-77
2022/06/13 13:47:25;;;;;;;;;;;31.50;68.90;;;;;;4935004;29;19918;-77
2022/06/13 13:49:56;;;;;;;;;;;31.50;68.90;;;;;;4959061;28;19914;-77
2022/06/13 13:52:35;;;;;;;;;;;31.50;69.70;;;;;;4976118;28;19909;-79
2022/06/13 13:55:02;;;;;;;;;;;31.60;69.90;;;;;;5016840;28;19913;-78
2022/06/13 13:57:30;;;;;;;;;;;32.00;68.60;;;;;;5016370;28;19913;-77
2022/06/13 13:59:58;;;;;;;;;;;32.20;67.70;;;;;;5015359;28;19955;-78
2022/06/13 14:02:38;;;;;;;;;;;32.20;67.70;;;;;;5016502;28;20366;-77
2022/06/13 14:05:07;;;;;;;;;;;32.00;67.80;;;;;;5011590;28;19921;-77
2022/06/13 14:07:44;;;;;;;;;;;31.70;68.80;;;;;;5015591;28;19912;-77
2022/06/13 14:10:13;;;;;;;;;;;31.80;68.40;;;;;;5016326;28;20424;-78
2022/06/13 14:12:57;;;;;;;;;;;31.80;68.20;;;;;;5016337;28;19913;-78
2022/06/13 14:15:30;;;;;;;;;;;32.10;66.30;;;;;;5016476;28;19917;-78
2022/06/13 14:17:56;;;;;;;;;;;32.00;67.80;;;;;;5016336;28;19947;-78
2022/06/13 14:20:25;;;;;;;;;;;32.00;66.90;;;;;;5015694;28;19960;-80
2022/06/13 14:22:52;;;;;;;;;;;31.90;67.60;;;;;;5014888;28;19909;-79
2022/06/13 14:25:38;;;;;;;;;;;31.90;67.60;;;;;;5015847;28;20392;-78
2022/06/13 14:28:09;;;;;;;;;;;31.90;67.20;;;;;;5015983;28;19909;-79
2022/06/13 14:36:46;;;;;;;;;;;31.60;67.50;;;;;;5015613;28;20389;-79
2022/06/13 14:39:16;;;;;;;;;;;31.60;68.20;;;;;;5015332;28;20370;-79
2022/06/13 14:41:42;;;;;;;;;;;31.50;68.10;;;;;;5015964;28;19909;-79
2022/06/13 14:44:16;;;;;;;;;;;31.60;67.80;;;;;;5014639;28;20309;-79
2022/06/13 14:47:00;;;;;;;;;;;31.40;67.70;;;;;;5016842;28;20355;-79
2022/06/13 14:49:34;;;;;;;;;;;31.30;68.30;;;;;;5015762;28;19912;-79
2022/06/13 14:52:07;;;;;;;;;;;31.30;68.40;;;;;;5015333;28;19909;-79
2022/06/13 14:54:48;;;;;;;;;;;31.70;68.20;;;;;;5014600;28;19988;-79
2022/06/13 14:57:29;;;;;;;;;;;31.70;68.10;;;;;;5015250;28;20328;-79
2022/06/13 15:00:03;;;;;;;;;;;31.60;67.90;;;;;;5015753;28;19906;-79
2022/06/13 15:02:30;;;;;;;;;;;31.70;67.40;;;;;;5015356;28;19957;-79